Time;durP1;ratioP1;P1;durP2;ratioP2;P2;SDS_P1;SDS_P2;PMS_P1;PMS_P2;Temp;Humidity;BMP_temperature;BMP_pressure;BME280_temperature;BME280_humidity;BME280_pressure;Samples;Min_cycle;Max_cycle;Signal;HPM_P1;HPM_P2
2022/03/12 00:00:02;;;;;;;27.00;24.90;;;;;;;;;;4996966;28;20465;-86
2022/03/12 00:02:32;;;;;;;28.30;26.30;;;;;;;;;;4997189;28;20442;-85
2022/03/12 00:05:01;;;;;;;26.52;24.52;;;;;;;;;;4997092;28;20431;-86
2022/03/12 00:07:30;;;;;;;26.60;24.70;;;;;;;;;;4996780;28;20218;-86
2022/03/12 00:09:57;;;;;;;26.97;25.27;;;;;;;;;;4997160;28;20462;-86
2022/03/12 00:12:25;;;;;;;27.93;25.93;;;;;;;;;;4997091;28;20469;-86
2022/03/12 00:14:52;;;;;;;24.85;23.25;;;;;;;;;;4996903;28;20468;-85
2022/03/12 00:17:22;;;;;;;26.67;24.87;;;;;;;;;;4995944;28;20207;-86
2022/03/12 00:19:51;;;;;;;26.58;24.75;;;;;;;;;;4996453;28;20503;-86
2022/03/12 00:22:20;;;;;;;23.17;21.80;;;;;;;;;;4996770;28;20206;-86
2022/03/12 00:24:48;;;;;;;25.85;24.25;;;;;;;;;;4996618;28;20195;-85
2022/03/12 00:27:16;;;;;;;26.43;24.73;;;;;;;;;;4996620;28;20341;-86
2022/03/12 00:29:44;;;;;;;26.83;24.92;;;;;;;;;;4996577;28;20409;-84
2022/03/12 00:32:12;;;;;;;26.83;24.98;;;;;;;;;;4996500;28;20223;-86
2022/03/12 00:34:40;;;;;;;25.75;23.83;;;;;;;;;;4996462;28;20192;-86
2022/03/12 00:37:09;;;;;;;25.80;24.10;;;;;;;;;;4996648;28;20191;-85
2022/03/12 00:39:37;;;;;;;28.50;26.50;;;;;;;;;;4996734;28;20190;-86
2022/03/12 00:42:04;;;;;;;26.47;24.50;;;;;;;;;;4996563;28;20248;-86
2022/03/12 00:44:32;;;;;;;25.37;23.57;;;;;;;;;;4996393;28;20477;-86
2022/03/12 00:46:59;;;;;;;27.55;25.75;;;;;;;;;;4996331;28;20449;-86
2022/03/12 00:49:26;;;;;;;25.40;23.77;;;;;;;;;;4996476;28;20203;-86
2022/03/12 00:51:53;;;;;;;27.15;25.35;;;;;;;;;;4996183;28;20238;-86
2022/03/12 00:54:22;;;;;;;26.00;24.40;;;;;;;;;;4996475;28;20187;-86
2022/03/12 00:56:50;;;;;;;26.33;24.52;;;;;;;;;;4996137;28;20190;-85
2022/03/12 00:59:17;;;;;;;26.08;24.40;;;;;;;;;;4996059;28;20195;-84
2022/03/12 01:01:44;;;;;;;26.67;24.52;;;;;;;;;;4995969;28;20199;-86
2022/03/12 01:04:12;;;;;;;26.25;24.55;;;;;;;;;;4996206;28;20218;-85
2022/03/12 01:06:40;;;;;;;25.15;23.60;;;;;;;;;;4996222;28;20322;-85
2022/03/12 01:09:07;;;;;;;27.10;25.30;;;;;;;;;;4995882;28;20265;-85
2022/03/12 01:11:38;;;;;;;25.10;23.58;;;;;;;;;;4995915;28;20293;-86
2022/03/12 01:14:06;;;;;;;25.30;23.60;;;;;;;;;;4995635;28;20194;-86
2022/03/12 01:16:33;;;;;;;26.58;24.38;;;;;;;;;;4995722;28;20255;-86
2022/03/12 01:19:01;;;;;;;25.67;23.88;;;;;;;;;;4995488;28;20234;-85
2022/03/12 01:21:28;;;;;;;25.08;23.52;;;;;;;;;;4995642;28;20237;-86
2022/03/12 01:23:55;;;;;;;24.67;23.00;;;;;;;;;;4995792;28;20187;-86
2022/03/12 01:26:24;;;;;;;26.67;24.83;;;;;;;;;;4995711;28;20699;-86
2022/03/12 01:28:53;;;;;;;25.65;23.80;;;;;;;;;;4995141;28;20195;-85
2022/03/12 01:31:20;;;;;;;24.67;23.08;;;;;;;;;;4995571;28;20269;-85
2022/03/12 01:33:48;;;;;;;37.72;24.85;;;;;;;;;;4995432;28;20210;-86
2022/03/12 01:36:16;;;;;;;25.67;23.90;;;;;;;;;;4995150;28;20265;-86
2022/03/12 01:38:47;;;;;;;25.35;23.85;;;;;;;;;;4995556;28;20239;-86
2022/03/12 01:41:15;;;;;;;27.75;25.67;;;;;;;;;;4995509;28;20573;-86
2022/03/12 01:43:43;;;;;;;26.85;25.00;;;;;;;;;;4995451;28;20191;-85
2022/03/12 01:46:12;;;;;;;25.33;23.63;;;;;;;;;;4995318;28;20291;-86
2022/03/12 01:48:42;;;;;;;25.13;23.48;;;;;;;;;;4995307;28;20191;-85
2022/03/12 01:51:10;;;;;;;25.90;24.20;;;;;;;;;;4995101;28;20250;-86
2022/03/12 01:53:37;;;;;;;25.98;24.17;;;;;;;;;;4995297;28;20195;-86
2022/03/12 01:56:05;;;;;;;26.38;24.67;;;;;;;;;;4994972;28;20194;-86
2022/03/12 01:58:34;;;;;;;25.80;24.00;;;;;;;;;;4994759;28;20194;-86
2022/03/12 02:01:02;;;;;;;25.05;23.27;;;;;;;;;;4994890;28;20198;-85
2022/03/12 02:03:32;;;;;;;25.10;23.55;;;;;;;;;;4995174;28;20218;-86
2022/03/12 02:06:00;;;;;;;25.02;23.33;;;;;;;;;;4995069;28;20530;-84
2022/03/12 02:08:27;;;;;;;25.17;23.40;;;;;;;;;;4995132;28;20558;-86
2022/03/12 02:10:58;;;;;;;23.33;22.00;;;;;;;;;;4995560;28;20581;-85
2022/03/12 02:13:26;;;;;;;25.05;23.45;;;;;;;;;;4978288;28;20202;-86
2022/03/12 02:16:00;;;;;;;25.35;23.70;;;;;;;;;;4994588;28;20198;-86
2022/03/12 02:18:27;;;;;;;25.73;23.90;;;;;;;;;;4994791;28;20235;-86
2022/03/12 02:20:56;;;;;;;25.50;23.80;;;;;;;;;;4994664;28;20589;-86
2022/03/12 02:23:23;;;;;;;24.92;23.25;;;;;;;;;;4994272;28;20605;-85
2022/03/12 02:25:52;;;;;;;25.35;23.75;;;;;;;;;;4994686;28;20195;-86
2022/03/12 02:28:21;;;;;;;24.88;23.33;;;;;;;;;;4994657;28;20195;-86
2022/03/12 02:30:51;;;;;;;25.77;24.08;;;;;;;;;;4994586;28;20538;-86
2022/03/12 02:33:26;;;;;;;24.73;23.23;;;;;;;;;;4994519;28;20249;-85
2022/03/12 02:35:53;;;;;;;25.67;24.10;;;;;;;;;;4994396;28;20190;-86
2022/03/12 02:38:22;;;;;;;24.85;23.40;;;;;;;;;;4993789;28;21089;-86
2022/03/12 02:40:49;;;;;;;24.77;23.17;;;;;;;;;;4994145;28;20290;-86
2022/03/12 02:43:21;;;;;;;24.13;22.52;;;;;;;;;;4994207;28;20203;-86
2022/03/12 02:45:51;;;;;;;25.30;23.70;;;;;;;;;;4994059;28;20633;-85
2022/03/12 02:48:18;;;;;;;25.67;23.98;;;;;;;;;;4994406;28;20191;-85
2022/03/12 02:50:46;;;;;;;24.67;23.02;;;;;;;;;;4994489;28;20201;-86
2022/03/12 02:53:13;;;;;;;25.50;23.55;;;;;;;;;;4994110;28;20253;-86
2022/03/12 02:55:42;;;;;;;24.50;23.00;;;;;;;;;;4994313;28;20891;-86
2022/03/12 02:58:10;;;;;;;24.77;23.20;;;;;;;;;;4993983;28;20234;-85
2022/03/12 03:00:39;;;;;;;25.27;23.65;;;;;;;;;;4994282;28;20190;-86
2022/03/12 03:03:07;;;;;;;24.40;22.80;;;;;;;;;;4994236;28;20210;-85
2022/03/12 03:05:46;;;;;;;24.70;23.10;;;;;;;;;;4994350;28;20191;-85
2022/03/12 03:08:16;;;;;;;25.27;23.63;;;;;;;;;;4994230;28;20253;-86
2022/03/12 03:10:44;;;;;;;25.33;23.52;;;;;;;;;;4994078;28;20214;-85
2022/03/12 03:13:31;;;;;;;25.38;23.67;;;;;;;;;;4994288;28;20198;-86
2022/03/12 03:16:00;;;;;;;24.65;23.00;;;;;;;;;;4994041;28;20191;-86
2022/03/12 03:18:29;;;;;;;24.77;23.25;;;;;;;;;;4993574;28;20235;-85
2022/03/12 03:20:58;;;;;;;24.75;23.00;;;;;;;;;;4993874;28;20591;-86
2022/03/12 03:23:26;;;;;;;24.90;23.30;;;;;;;;;;4993665;28;20198;-86
2022/03/12 03:25:53;;;;;;;25.80;23.95;;;;;;;;;;4993703;28;20633;-85
2022/03/12 03:28:21;;;;;;;23.38;21.98;;;;;;;;;;4993816;28;20195;-84
2022/03/12 03:30:48;;;;;;;25.25;23.40;;;;;;;;;;4994079;28;20218;-85
2022/03/12 03:33:17;;;;;;;24.30;22.70;;;;;;;;;;4993906;28;20191;-85
2022/03/12 03:35:45;;;;;;;26.23;24.52;;;;;;;;;;4994004;28;20496;-85
2022/03/12 03:38:13;;;;;;;24.67;23.08;;;;;;;;;;4976121;28;20211;-85
2022/03/12 03:40:41;;;;;;;24.42;22.92;;;;;;;;;;4993571;28;20641;-85
2022/03/12 03:43:09;;;;;;;24.58;22.98;;;;;;;;;;4993655;28;20550;-85
2022/03/12 03:45:37;;;;;;;25.05;23.42;;;;;;;;;;4993832;28;20226;-86
2022/03/12 03:48:05;;;;;;;24.67;23.27;;;;;;;;;;4993522;28;20545;-86
2022/03/12 03:50:34;;;;;;;26.02;24.45;;;;;;;;;;4994863;28;20194;-85
2022/03/12 03:53:03;;;;;;;25.30;23.60;;;;;;;;;;4997448;28;20593;-85
2022/03/12 03:55:31;;;;;;;26.30;24.55;;;;;;;;;;4997559;28;20202;-86
2022/03/12 03:57:59;;;;;;;25.27;23.77;;;;;;;;;;4997327;28;20600;-86
2022/03/12 04:00:27;;;;;;;26.20;24.45;;;;;;;;;;4997374;28;20198;-86
2022/03/12 04:03:02;;;;;;;24.73;23.25;;;;;;;;;;4996937;28;20187;-86
2022/03/12 04:05:29;;;;;;;25.70;24.05;;;;;;;;;;4996816;28;20190;-85
2022/03/12 04:08:00;;;;;;;25.65;23.80;;;;;;;;;;4997227;28;20211;-85
2022/03/12 04:10:27;;;;;;;24.90;23.40;;;;;;;;;;4997137;28;20207;-85
2022/03/12 04:12:54;;;;;;;22.93;21.63;;;;;;;;;;4997064;28;20218;-86
2022/03/12 04:15:22;;;;;;;25.23;23.63;;;;;;;;;;4996998;28;20450;-84
2022/03/12 04:17:51;;;;;;;24.80;23.20;;;;;;;;;;4996587;28;20286;-86
2022/03/12 04:20:19;;;;;;;25.40;23.63;;;;;;;;;;4996820;28;20286;-86
2022/03/12 04:22:46;;;;;;;25.92;24.05;;;;;;;;;;4996709;28;20234;-85
2022/03/12 04:25:16;;;;;;;25.48;23.88;;;;;;;;;;4997072;28;20195;-86
2022/03/12 04:27:44;;;;;;;26.13;24.35;;;;;;;;;;4996651;28;20195;-86
2022/03/12 04:30:12;;;;;;;24.42;22.95;;;;;;;;;;4996819;28;20712;-85
2022/03/12 04:32:39;;;;;;;24.50;22.65;;;;;;;;;;4996431;28;20735;-86
2022/03/12 04:35:07;;;;;;;25.45;23.83;;;;;;;;;;4996542;28;20634;-84
2022/03/12 04:37:34;;;;;;;25.02;23.52;;;;;;;;;;4996913;28;20546;-86
2022/03/12 04:40:02;;;;;;;25.77;24.27;;;;;;;;;;4996715;28;20215;-85
2022/03/12 04:42:31;;;;;;;25.98;24.20;;;;;;;;;;4996763;28;20241;-86
2022/03/12 04:44:59;;;;;;;25.23;23.73;;;;;;;;;;4996470;28;20286;-85
2022/03/12 04:47:26;;;;;;;25.00;23.50;;;;;;;;;;4996172;28;20195;-85
2022/03/12 04:49:53;;;;;;;25.27;23.67;;;;;;;;;;4996368;28;20191;-86
2022/03/12 04:52:22;;;;;;;25.77;24.17;;;;;;;;;;4996026;28;20993;-86
2022/03/12 04:54:49;;;;;;;24.63;23.02;;;;;;;;;;4996323;28;20202;-85
2022/03/12 04:57:16;;;;;;;24.80;23.23;;;;;;;;;;4995977;28;20199;-86
2022/03/12 04:59:45;;;;;;;24.95;23.45;;;;;;;;;;4996338;28;20191;-86
2022/03/12 05:02:13;;;;;;;24.88;23.13;;;;;;;;;;4995230;28;20648;-85
2022/03/12 05:04:40;;;;;;;25.90;24.10;;;;;;;;;;4996228;28;20638;-86
2022/03/12 05:07:09;;;;;;;25.70;24.20;;;;;;;;;;4996110;28;20217;-86
2022/03/12 05:09:36;;;;;;;24.58;23.02;;;;;;;;;;4996137;28;20198;-86
2022/03/12 05:12:05;;;;;;;26.42;24.40;;;;;;;;;;4996091;28;20735;-86
2022/03/12 05:14:34;;;;;;;25.60;23.85;;;;;;;;;;4995690;28;20191;-86
2022/03/12 05:17:08;;;;;;;26.27;24.48;;;;;;;;;;4995605;28;20630;-85
2022/03/12 05:19:36;;;;;;;25.88;24.25;;;;;;;;;;4995471;28;20321;-85
2022/03/12 05:22:04;;;;;;;25.98;24.27;;;;;;;;;;4978275;28;20281;-85
2022/03/12 05:24:32;;;;;;;27.00;25.13;;;;;;;;;;4995838;28;20203;-86
2022/03/12 05:27:00;;;;;;;26.35;24.60;;;;;;;;;;4995733;28;20194;-86
2022/03/12 05:29:30;;;;;;;25.88;24.17;;;;;;;;;;4995567;28;20257;-85
2022/03/12 05:31:57;;;;;;;26.67;24.88;;;;;;;;;;4995387;28;20218;-86
2022/03/12 05:34:26;;;;;;;27.00;25.10;;;;;;;;;;4995361;28;20191;-86
2022/03/12 05:36:53;;;;;;;26.13;24.42;;;;;;;;;;4995353;28;20578;-86
2022/03/12 05:39:22;;;;;;;24.55;23.08;;;;;;;;;;4995435;28;20194;-86
2022/03/12 05:41:49;;;;;;;26.30;24.50;;;;;;;;;;4995221;28;20257;-85
2022/03/12 05:44:17;;;;;;;25.77;23.90;;;;;;;;;;4994905;28;20672;-81
2022/03/12 05:46:44;;;;;;;25.60;23.85;;;;;;;;;;4994641;28;20195;-82
2022/03/12 05:49:12;;;;;;;26.08;24.48;;;;;;;;;;4994448;28;20638;-82
2022/03/12 05:51:43;;;;;;;26.30;24.70;;;;;;;;;;4994364;28;20226;-81
2022/03/12 05:54:11;;;;;;;26.55;24.65;;;;;;;;;;4994304;28;20193;-82
2022/03/12 05:56:40;;;;;;;25.95;24.15;;;;;;;;;;4994005;28;20255;-82
2022/03/12 05:59:08;;;;;;;25.88;23.58;;;;;;;;;;4994595;28;20193;-81
2022/03/12 06:01:35;;;;;;;26.15;24.40;;;;;;;;;;4994424;28;20222;-82
2022/03/12 06:04:04;;;;;;;25.88;24.17;;;;;;;;;;4994045;28;20238;-82
2022/03/12 06:06:35;;;;;;;25.95;24.13;;;;;;;;;;4994074;28;20297;-82
2022/03/12 06:09:07;;;;;;;24.77;23.20;;;;;;;;;;4994397;28;20222;-81
2022/03/12 06:11:37;;;;;;;25.50;23.90;;;;;;;;;;4993987;28;20203;-82
2022/03/12 06:14:04;;;;;;;25.70;23.90;;;;;;;;;;4993887;28;20645;-82
2022/03/12 06:16:33;;;;;;;26.95;25.08;;;;;;;;;;4994159;28;20190;-82
2022/03/12 06:19:00;;;;;;;24.85;23.15;;;;;;;;;;4993664;28;20231;-82
2022/03/12 06:21:29;;;;;;;26.45;24.85;;;;;;;;;;4993802;28;20199;-82
2022/03/12 06:23:58;;;;;;;26.25;24.55;;;;;;;;;;4994133;28;20278;-82
2022/03/12 06:26:27;;;;;;;28.50;25.92;;;;;;;;;;4993936;28;20191;-82
2022/03/12 06:28:54;;;;;;;26.67;24.88;;;;;;;;;;4993908;28;20194;-82
2022/03/12 06:31:22;;;;;;;25.60;24.00;;;;;;;;;;4993510;28;20638;-81
2022/03/12 06:33:50;;;;;;;26.80;25.10;;;;;;;;;;4993861;28;20223;-81
2022/03/12 06:36:19;;;;;;;26.70;25.00;;;;;;;;;;4993573;28;20641;-82
2022/03/12 06:38:46;;;;;;;27.35;25.55;;;;;;;;;;4993729;28;20207;-82
2022/03/12 06:41:13;;;;;;;26.40;24.70;;;;;;;;;;4993855;28;20199;-82
2022/03/12 06:43:42;;;;;;;26.98;25.17;;;;;;;;;;4993742;28;20636;-82
2022/03/12 06:46:14;;;;;;;27.33;25.52;;;;;;;;;;4993432;28;20215;-82
2022/03/12 06:48:42;;;;;;;27.00;25.10;;;;;;;;;;4993614;28;20264;-82
2022/03/12 06:51:10;;;;;;;25.55;24.05;;;;;;;;;;4993238;28;20227;-82
2022/03/12 06:53:37;;;;;;;27.13;25.17;;;;;;;;;;4993395;28;20226;-82
2022/03/12 06:56:06;;;;;;;26.42;24.70;;;;;;;;;;4993442;28;20661;-82
2022/03/12 06:58:35;;;;;;;25.45;23.85;;;;;;;;;;4993224;28;20278;-81
2022/03/12 07:01:04;;;;;;;28.08;26.38;;;;;;;;;;4993264;28;20194;-82
2022/03/12 07:03:31;;;;;;;28.10;26.30;;;;;;;;;;4993228;28;20261;-81
2022/03/12 07:05:58;;;;;;;26.45;24.70;;;;;;;;;;4993626;28;20197;-81
2022/03/12 07:08:26;;;;;;;27.67;25.83;;;;;;;;;;4993589;28;20199;-81
2022/03/12 07:10:53;;;;;;;26.30;24.60;;;;;;;;;;4993953;28;20264;-81
2022/03/12 07:13:20;;;;;;;26.65;25.05;;;;;;;;;;4993200;28;20662;-82
2022/03/12 07:15:49;;;;;;;27.48;25.67;;;;;;;;;;4993405;28;20675;-83
2022/03/12 07:18:18;;;;;;;27.30;25.50;;;;;;;;;;4993179;28;20300;-82
2022/03/12 07:20:46;;;;;;;23.67;22.17;;;;;;;;;;4993127;28;20191;-82
2022/03/12 07:23:13;;;;;;;26.20;24.40;;;;;;;;;;4993425;28;20191;-82
2022/03/12 07:25:40;;;;;;;25.35;23.67;;;;;;;;;;4994720;28;20190;-82
2022/03/12 07:28:10;;;;;;;25.58;23.88;;;;;;;;;;4996723;28;20203;-82
2022/03/12 07:30:37;;;;;;;25.63;23.90;;;;;;;;;;4997307;28;20538;-81
2022/03/12 07:33:05;;;;;;;25.60;23.80;;;;;;;;;;4997028;28;20470;-81
2022/03/12 07:35:34;;;;;;;27.63;25.77;;;;;;;;;;4997112;28;20626;-82
2022/03/12 07:38:01;;;;;;;27.70;25.80;;;;;;;;;;4996977;28;20736;-82
2022/03/12 07:40:28;;;;;;;27.08;25.38;;;;;;;;;;4997112;28;20446;-81
2022/03/12 07:42:56;;;;;;;27.88;26.00;;;;;;;;;;4996977;28;20191;-82
2022/03/12 07:45:23;;;;;;;26.67;24.77;;;;;;;;;;4996678;28;20198;-82
2022/03/12 07:47:52;;;;;;;27.38;25.05;;;;;;;;;;4996888;28;20202;-82
2022/03/12 07:50:19;;;;;;;25.77;24.13;;;;;;;;;;4996373;28;20567;-81
2022/03/12 07:52:49;;;;;;;25.00;23.40;;;;;;;;;;4996575;28;20518;-81
2022/03/12 07:55:17;;;;;;;25.88;24.20;;;;;;;;;;4996409;28;20199;-81
2022/03/12 07:57:44;;;;;;;26.40;24.58;;;;;;;;;;4996308;28;20728;-81
2022/03/12 08:00:12;;;;;;;25.83;24.23;;;;;;;;;;4996697;28;20205;-82
2022/03/12 08:02:40;;;;;;;25.60;23.93;;;;;;;;;;4996344;28;20449;-81
2022/03/12 08:05:07;;;;;;;26.95;25.00;;;;;;;;;;4996199;28;20434;-81
2022/03/12 08:07:35;;;;;;;27.80;25.77;;;;;;;;;;4996220;28;20195;-81
2022/03/12 08:10:04;;;;;;;26.67;24.80;;;;;;;;;;4996586;28;20434;-81
2022/03/12 08:12:32;;;;;;;26.40;24.50;;;;;;;;;;4996175;28;20214;-81
2022/03/12 08:15:03;;;;;;;26.70;24.90;;;;;;;;;;4996330;28;20442;-83
2022/03/12 08:17:31;;;;;;;27.40;25.60;;;;;;;;;;4996123;28;20425;-81
2022/03/12 08:19:58;;;;;;;27.20;25.20;;;;;;;;;;4995924;28;20459;-82
2022/03/12 08:22:26;;;;;;;26.83;24.97;;;;;;;;;;4995959;28;20665;-81
2022/03/12 08:24:54;;;;;;;27.67;25.90;;;;;;;;;;4995876;28;20445;-81
2022/03/12 08:27:23;;;;;;;26.27;24.47;;;;;;;;;;4996058;28;20432;-81
2022/03/12 08:29:50;;;;;;;26.80;24.90;;;;;;;;;;4996185;28;20446;-81
2022/03/12 08:32:18;;;;;;;27.70;25.27;;;;;;;;;;4996171;28;20409;-81
2022/03/12 08:34:45;;;;;;;27.33;25.33;;;;;;;;;;4995684;28;20846;-81
2022/03/12 08:37:12;;;;;;;26.70;24.87;;;;;;;;;;4994801;28;20442;-81
2022/03/12 08:39:40;;;;;;;25.37;23.50;;;;;;;;;;4995989;28;20419;-81
2022/03/12 08:42:08;;;;;;;27.40;25.07;;;;;;;;;;4996013;28;20453;-81
2022/03/12 08:44:37;;;;;;;26.93;25.23;;;;;;;;;;4995619;28;20967;-82
2022/03/12 08:47:05;;;;;;;28.17;26.33;;;;;;;;;;4995490;28;20442;-81
2022/03/12 08:49:32;;;;;;;27.00;25.13;;;;;;;;;;4995566;28;20533;-81
2022/03/12 08:52:00;;;;;;;26.83;25.03;;;;;;;;;;4995381;28;20897;-82
2022/03/12 08:54:27;;;;;;;27.43;25.63;;;;;;;;;;4995719;28;20497;-81
2022/03/12 08:56:54;;;;;;;26.90;25.30;;;;;;;;;;4995246;28;20439;-81
2022/03/12 08:59:21;;;;;;;27.33;25.03;;;;;;;;;;4995450;28;20838;-81
2022/03/12 09:01:50;;;;;;;27.97;26.27;;;;;;;;;;4995325;28;20438;-81
2022/03/12 09:04:19;;;;;;;26.73;25.10;;;;;;;;;;4995554;28;20449;-81
2022/03/12 09:06:47;;;;;;;28.13;26.23;;;;;;;;;;4995435;28;20442;-81
2022/03/12 09:09:15;;;;;;;28.53;26.43;;;;;;;;;;4995417;28;20442;-81
2022/03/12 09:11:43;;;;;;;25.67;23.97;;;;;;;;;;4995446;28;20423;-81
2022/03/12 09:14:10;;;;;;;27.37;25.43;;;;;;;;;;4995344;28;20508;-82
2022/03/12 09:16:38;;;;;;;28.17;26.03;;;;;;;;;;4995013;28;20418;-81
2022/03/12 09:19:07;;;;;;;27.80;25.60;;;;;;;;;;4994886;28;20460;-82
2022/03/12 09:21:35;;;;;;;27.83;25.97;;;;;;;;;;4995211;28;20480;-81
2022/03/12 09:24:03;;;;;;;28.20;26.30;;;;;;;;;;4995090;28;20459;-82
2022/03/12 09:26:30;;;;;;;26.97;25.17;;;;;;;;;;4994554;28;21003;-80
2022/03/12 09:28:58;;;;;;;27.60;25.67;;;;;;;;;;4994746;28;20464;-81
2022/03/12 09:31:25;;;;;;;27.07;25.07;;;;;;;;;;4995193;28;20446;-81
2022/03/12 09:33:52;;;;;;;25.93;24.33;;;;;;;;;;4994671;28;20528;-81
2022/03/12 09:36:21;;;;;;;28.20;26.20;;;;;;;;;;4994807;28;20845;-81
2022/03/12 09:38:50;;;;;;;26.73;24.83;;;;;;;;;;4995289;28;20473;-81
2022/03/12 09:41:18;;;;;;;26.77;24.77;;;;;;;;;;4994615;28;20478;-81
2022/03/12 09:43:45;;;;;;;24.23;22.63;;;;;;;;;;4994550;28;20442;-81
2022/03/12 09:46:13;;;;;;;27.20;25.40;;;;;;;;;;4994725;28;20442;-81
2022/03/12 09:48:40;;;;;;;27.50;25.53;;;;;;;;;;4994448;28;20516;-81
2022/03/12 09:51:08;;;;;;;26.53;24.63;;;;;;;;;;4994372;28;20987;-81
2022/03/12 09:53:37;;;;;;;26.43;24.63;;;;;;;;;;4994149;28;20840;-81
2022/03/12 09:56:04;;;;;;;26.47;24.47;;;;;;;;;;4994414;28;20428;-82
2022/03/12 09:58:32;;;;;;;27.60;25.60;;;;;;;;;;4994162;28;20471;-81
2022/03/12 10:00:59;;;;;;;26.90;25.00;;;;;;;;;;4994104;28;20441;-82
2022/03/12 10:03:26;;;;;;;27.77;25.70;;;;;;;;;;4994433;28;20428;-82
2022/03/12 10:05:54;;;;;;;25.17;23.57;;;;;;;;;;4994048;28;20938;-81
2022/03/12 10:08:22;;;;;;;26.77;24.77;;;;;;;;;;4993999;28;20971;-81
2022/03/12 10:10:51;;;;;;;27.60;25.70;;;;;;;;;;4994216;28;20912;-81
2022/03/12 10:13:18;;;;;;;27.63;25.73;;;;;;;;;;4994180;28;20482;-81
2022/03/12 10:15:46;;;;;;;26.93;25.00;;;;;;;;;;4994153;28;20753;-84
2022/03/12 10:18:13;;;;;;;27.03;25.10;;;;;;;;;;4993996;28;20460;-82
2022/03/12 10:20:41;;;;;;;28.00;25.97;;;;;;;;;;4993880;28;20405;-81
2022/03/12 10:23:08;;;;;;;28.30;26.37;;;;;;;;;;4993853;28;20467;-82
2022/03/12 10:25:36;;;;;;;28.10;26.10;;;;;;;;;;4993734;28;20883;-81
2022/03/12 10:28:05;;;;;;;27.43;25.53;;;;;;;;;;4993854;28;20500;-81
2022/03/12 10:30:34;;;;;;;28.50;26.50;;;;;;;;;;4993716;28;20412;-82
2022/03/12 10:33:01;;;;;;;26.27;24.37;;;;;;;;;;4993829;28;20431;-80
2022/03/12 10:35:34;;;;;;;27.83;25.83;;;;;;;;;;4993504;28;20463;-81
2022/03/12 10:38:02;;;;;;;28.33;26.30;;;;;;;;;;4993705;28;20477;-82
2022/03/12 10:40:30;;;;;;;28.40;26.30;;;;;;;;;;4993782;28;20446;-82
2022/03/12 10:42:59;;;;;;;28.00;25.70;;;;;;;;;;4993394;28;20417;-81
2022/03/12 10:45:29;;;;;;;30.07;27.70;;;;;;;;;;4993659;28;20424;-81
2022/03/12 10:47:57;;;;;;;29.20;26.90;;;;;;;;;;4993626;28;20442;-81
2022/03/12 10:50:26;;;;;;;28.80;26.73;;;;;;;;;;4993596;28;20459;-81
2022/03/12 10:52:55;;;;;;;27.23;25.10;;;;;;;;;;4993427;28;20477;-81
2022/03/12 10:55:25;;;;;;;28.27;26.03;;;;;;;;;;4993155;28;20468;-81
2022/03/12 10:57:57;;;;;;;29.23;27.07;;;;;;;;;;4993035;28;20424;-81
2022/03/12 11:00:25;;;;;;;29.30;27.10;;;;;;;;;;4992823;28;20464;-81
2022/03/12 11:02:58;;;;;;;27.80;25.90;;;;;;;;;;4993416;28;20417;-81
2022/03/12 11:05:27;;;;;;;26.93;25.00;;;;;;;;;;4993511;28;20440;-82
2022/03/12 11:08:07;;;;;;;27.73;25.60;;;;;;;;;;4993481;28;20460;-81
2022/03/12 11:10:37;;;;;;;26.70;24.90;;;;;;;;;;4993440;28;20452;-82
2022/03/12 11:13:05;;;;;;;29.53;27.43;;;;;;;;;;4993175;28;20903;-82
2022/03/12 11:15:33;;;;;;;29.00;26.97;;;;;;;;;;4992996;28;20489;-81
2022/03/12 11:18:08;;;;;;;27.93;26.10;;;;;;;;;;4992834;28;20892;-81
2022/03/12 11:20:36;;;;;;;29.73;27.77;;;;;;;;;;4993389;28;20519;-81
2022/03/12 11:23:08;;;;;;;30.37;28.17;;;;;;;;;;4993135;28;20421;-81
2022/03/12 11:25:36;;;;;;;30.00;27.90;;;;;;;;;;4993601;28;20516;-81
2022/03/12 11:28:17;;;;;;;29.30;27.20;;;;;;;;;;4993031;28;20481;-81
2022/03/12 11:30:45;;;;;;;30.33;28.17;;;;;;;;;;4993084;28;20903;-82
2022/03/12 11:33:14;;;;;;;29.57;27.47;;;;;;;;;;4993248;28;20424;-80
2022/03/12 11:35:44;;;;;;;31.00;28.73;;;;;;;;;;4992907;28;21269;-81
2022/03/12 11:38:18;;;;;;;29.53;27.53;;;;;;;;;;4993268;28;20421;-81
2022/03/12 11:40:47;;;;;;;30.60;28.40;;;;;;;;;;4993275;28;20412;-81
2022/03/12 11:43:24;;;;;;;29.97;27.90;;;;;;;;;;4993097;28;20533;-82
2022/03/12 11:45:53;;;;;;;29.30;27.20;;;;;;;;;;4993138;28;20442;-81
2022/03/12 11:48:23;;;;;;;29.77;27.50;;;;;;;;;;4992769;28;20949;-82
2022/03/12 11:50:50;;;;;;;29.83;27.70;;;;;;;;;;4992869;28;20449;-81
2022/03/12 11:53:19;;;;;;;30.37;28.17;;;;;;;;;;4992898;28;20885;-82
2022/03/12 11:55:49;;;;;;;28.80;26.80;;;;;;;;;;4992616;28;20580;-82
2022/03/12 11:58:17;;;;;;;30.30;28.10;;;;;;;;;;4992631;28;20819;-81
2022/03/12 12:00:46;;;;;;;28.70;26.70;;;;;;;;;;4992793;28;20449;-81
2022/03/12 12:03:15;;;;;;;29.80;27.80;;;;;;;;;;4993192;28;20413;-81
2022/03/12 12:05:45;;;;;;;29.53;27.20;;;;;;;;;;4993292;28;20413;-81
2022/03/12 12:08:13;;;;;;;30.73;28.63;;;;;;;;;;4993769;28;20442;-81
2022/03/12 12:10:42;;;;;;;31.03;28.80;;;;;;;;;;4992756;28;20507;-81
2022/03/12 12:13:10;;;;;;;29.83;27.60;;;;;;;;;;4996585;28;20434;-82
2022/03/12 12:15:39;;;;;;;28.93;26.90;;;;;;;;;;4996330;28;20547;-81
2022/03/12 12:18:07;;;;;;;27.57;25.67;;;;;;;;;;4996592;28;20506;-81
2022/03/12 12:20:35;;;;;;;30.27;28.07;;;;;;;;;;4996217;28;20447;-82
2022/03/12 12:23:05;;;;;;;30.87;28.50;;;;;;;;;;4995989;28;20413;-80
2022/03/12 12:25:34;;;;;;;31.00;28.90;;;;;;;;;;4996244;28;20421;-81
2022/03/12 12:28:02;;;;;;;31.33;29.23;;;;;;;;;;4996147;28;20467;-82
2022/03/12 12:30:37;;;;;;;31.67;29.40;;;;;;;;;;4996157;28;20912;-81
2022/03/12 12:33:14;;;;;;;30.33;28.23;;;;;;;;;;4995760;28;20998;-82
2022/03/12 12:35:41;;;;;;;31.23;28.93;;;;;;;;;;4995684;28;21296;-82
2022/03/12 12:38:11;;;;;;;30.70;28.50;;;;;;;;;;4995776;28;20838;-81
2022/03/12 12:40:43;;;;;;;31.37;29.10;;;;;;;;;;4996015;28;20421;-81
2022/03/12 12:43:13;;;;;;;32.07;29.83;;;;;;;;;;4978418;28;20955;-81
2022/03/12 12:45:59;;;;;;;30.13;28.03;;;;;;;;;;4995912;28;20425;-81
2022/03/12 12:48:29;;;;;;;32.40;29.90;;;;;;;;;;4995724;28;20416;-81
2022/03/12 12:51:10;;;;;;;31.53;29.20;;;;;;;;;;4995389;28;20474;-81
2022/03/12 12:53:40;;;;;;;31.27;29.07;;;;;;;;;;4995798;28;20511;-82
2022/03/12 12:56:21;;;;;;;31.73;29.00;;;;;;;;;;4995623;28;20496;-81
2022/03/12 12:58:50;;;;;;;30.23;27.93;;;;;;;;;;4995719;28;20496;-81
2022/03/12 13:01:17;;;;;;;31.40;29.30;;;;;;;;;;4995624;28;20423;-81
2022/03/12 13:03:48;;;;;;;29.60;27.40;;;;;;;;;;4995530;28;20465;-81
2022/03/12 13:06:40;;;;;;;31.90;29.67;;;;;;;;;;4995448;28;20489;-81
2022/03/12 13:09:10;;;;;;;30.60;28.43;;;;;;;;;;4995492;28;20417;-80
2022/03/12 13:11:39;;;;;;;31.10;28.90;;;;;;;;;;4995455;28;20405;-80
2022/03/12 13:14:09;;;;;;;30.63;28.53;;;;;;;;;;4994937;28;20932;-81
2022/03/12 13:16:49;;;;;;;31.57;29.20;;;;;;;;;;4995294;28;20425;-81
2022/03/12 13:19:28;;;;;;;32.00;29.60;;;;;;;;;;4994919;28;20481;-81
2022/03/12 13:21:59;;;;;;;32.13;29.67;;;;;;;;;;4995258;28;20436;-81
2022/03/12 13:24:29;;;;;;;38.70;34.93;;;;;;;;;;4994556;28;20458;-81
2022/03/12 13:26:56;;;;;;;31.57;29.37;;;;;;;;;;4994922;28;20533;-81
2022/03/12 13:29:26;;;;;;;31.10;28.77;;;;;;;;;;4995033;28;20449;-81
2022/03/12 13:31:54;;;;;;;31.30;28.90;;;;;;;;;;4994871;28;20446;-81
2022/03/12 13:34:22;;;;;;;32.00;28.90;;;;;;;;;;4994923;28;20471;-81
2022/03/12 13:36:54;;;;;;;33.03;29.60;;;;;;;;;;4994858;28;20840;-81
2022/03/12 13:39:21;;;;;;;31.90;29.50;;;;;;;;;;4994940;28;20425;-82
2022/03/12 13:41:50;;;;;;;31.00;28.90;;;;;;;;;;4994901;28;20489;-82
2022/03/12 13:44:19;;;;;;;32.30;30.10;;;;;;;;;;4994568;28;20441;-82
2022/03/12 13:46:48;;;;;;;29.90;27.67;;;;;;;;;;4994511;28;20412;-81
2022/03/12 13:49:16;;;;;;;31.40;29.00;;;;;;;;;;4994372;28;20458;-81
2022/03/12 13:51:45;;;;;;;31.30;28.93;;;;;;;;;;4994540;28;20472;-81
2022/03/12 13:54:14;;;;;;;32.50;29.60;;;;;;;;;;4994568;28;20452;-82
2022/03/12 13:56:41;;;;;;;34.57;31.60;;;;;;;;;;4994144;28;20431;-81
2022/03/12 13:59:12;;;;;;;31.00;28.70;;;;;;;;;;4994264;28;20485;-82
2022/03/12 14:01:40;;;;;;;31.00;28.77;;;;;;;;;;4994513;28;20441;-82
2022/03/12 14:04:08;;;;;;;31.40;29.20;;;;;;;;;;4994149;28;20939;-81
2022/03/12 14:06:39;;;;;;;31.87;29.67;;;;;;;;;;4994357;28;20409;-82
2022/03/12 14:09:06;;;;;;;32.10;29.70;;;;;;;;;;4994035;28;20425;-82
2022/03/12 14:11:35;;;;;;;32.00;29.70;;;;;;;;;;4994276;28;20453;-82
2022/03/12 14:14:04;;;;;;;31.23;28.83;;;;;;;;;;4994062;28;20477;-80
2022/03/12 14:16:35;;;;;;;30.70;28.50;;;;;;;;;;4993834;28;20497;-81
2022/03/12 14:19:03;;;;;;;32.17;29.57;;;;;;;;;;4993759;28;20521;-81
2022/03/12 14:21:35;;;;;;;30.77;28.57;;;;;;;;;;4993925;28;20428;-82
2022/03/12 14:24:08;;;;;;;31.40;29.30;;;;;;;;;;4994132;28;20611;-81